createdAt,value
2018-08-24T15:51:32.187Z,59.88
2018-08-24T15:52:33.483Z,59.60
2018-08-24T15:53:32.046Z,60.71
2018-08-24T15:54:33.100Z,61.04
2018-08-24T15:55:31.942Z,61.85
2018-08-24T15:56:31.993Z,62.98
2018-08-24T15:57:31.900Z,62.48
2018-08-24T15:58:31.896Z,62.27
2018-08-24T15:59:31.886Z,61.57
2018-08-24T16:00:31.918Z,61.67
2018-08-24T16:01:31.843Z,61.87
2018-08-24T16:02:31.850Z,62.38
2018-08-24T16:03:31.884Z,60.67
2018-08-24T16:04:31.817Z,60.57
2018-08-24T16:05:31.832Z,60.47
2018-08-24T16:06:31.813Z,60.97
2018-08-24T16:07:31.790Z,60.77
2018-08-24T16:08:31.774Z,60.67
2018-08-24T16:09:31.780Z,59.56
2018-08-24T16:10:32.950Z,60.06
2018-08-24T16:11:31.743Z,59.86
2018-08-24T16:12:31.731Z,59.86
2018-08-24T16:13:31.746Z,59.46
2018-08-24T16:14:31.691Z,59.16
2018-08-24T16:15:31.679Z,59.96
2018-08-24T16:16:31.785Z,59.66
2018-08-24T16:17:31.658Z,59.03
2018-08-24T16:18:31.657Z,60.64
2018-08-24T16:19:31.666Z,59.74
2018-08-24T16:20:31.647Z,58.50
2018-08-24T16:21:32.439Z,58.20
2018-08-24T16:22:31.621Z,57.92
2018-08-24T16:23:31.665Z,57.32
2018-08-24T16:24:31.632Z,58.98
2018-08-24T16:25:32.459Z,60.02
2018-08-24T16:26:31.633Z,60.35
2018-08-24T16:27:31.630Z,61.16
2018-08-24T16:28:31.551Z,61.86
2018-08-24T16:29:31.637Z,61.76
2018-08-24T16:31:03.189Z,62.97
2018-08-24T16:31:31.869Z,62.29
2018-08-24T16:33:00.060Z,61.86
2018-08-24T16:33:38.391Z,62.19
2018-08-24T16:34:34.386Z,61.89
2018-08-24T16:35:34.560Z,62.19
2018-08-24T16:36:39.490Z,62.26
2018-08-24T16:37:32.455Z,62.40
2018-08-24T16:38:39.784Z,62.70
2018-08-24T16:39:37.429Z,62.40
2018-08-24T16:40:42.375Z,63.10
2018-08-24T16:43:19.498Z,64.31
2018-08-24T16:43:54.363Z,63.60
2018-08-24T16:44:53.394Z,62.97
2018-08-24T16:46:08.775Z,62.60
2018-08-24T16:46:48.433Z,62.60
2018-08-24T16:53:38.721Z,63.73
2018-08-24T16:54:18.025Z,63.90
2018-08-24T16:55:17.619Z,63.30
2018-08-24T17:02:45.236Z,63.50
2018-08-24T17:03:17.775Z,64.31
2018-08-24T17:04:18.701Z,64.41
2018-08-24T17:05:19.662Z,65.01
2018-08-24T17:06:19.797Z,63.70
2018-08-24T17:07:21.120Z,63.70
2018-08-24T17:08:18.130Z,63.81
2018-08-24T17:09:19.191Z,64.51
2018-08-24T17:11:39.354Z,64.51
2018-08-24T17:12:31.775Z,64.31
2018-08-24T17:14:16.811Z,63.50
2018-08-24T17:14:33.480Z,65.01
2018-08-24T17:15:34.094Z,65.72
2018-08-24T17:16:31.391Z,64.41
2018-08-24T17:18:03.075Z,64.31
2018-08-24T17:18:37.020Z,64.89
2018-08-24T17:19:55.029Z,64.41
2018-08-24T17:20:35.021Z,63.27
2018-08-24T17:21:36.035Z,62.77
2018-08-24T17:23:06.089Z,63.07
2018-08-24T17:23:31.281Z,64.11
2018-08-24T17:24:32.210Z,64.69
2018-08-24T17:26:05.046Z,64.78
2018-08-24T17:28:27.742Z,64.58
2018-08-24T17:29:07.152Z,63.37
2018-08-24T17:29:49.754Z,63.27
2018-08-24T17:30:53.640Z,65.01
2018-08-24T17:31:51.677Z,64.31
2018-08-24T17:42:50.254Z,65.15
2018-08-24T17:43:31.213Z,64.04
2018-08-24T17:54:09.091Z,64.95
2018-08-24T17:58:20.388Z,65.45
2018-08-24T17:58:47.878Z,65.35
2018-08-24T17:59:45.904Z,64.54
2018-08-24T18:01:15.349Z,65.55
2018-08-24T18:01:46.881Z,65.95
2018-08-24T18:02:59.845Z,66.46
2018-08-24T18:03:54.990Z,66.36
2018-08-24T18:04:44.881Z,66.89
2018-08-24T18:05:46.302Z,66.39
2018-08-24T18:06:51.895Z,66.69
2018-08-24T18:07:45.116Z,67.50
2018-08-24T18:08:49.891Z,68.41
2018-08-24T18:09:47.877Z,68.21
2018-08-24T18:10:50.886Z,68.24
2018-08-24T18:13:24.138Z,68.44
2018-08-24T18:14:00.014Z,68.21
2018-08-24T18:14:58.276Z,69.62
2018-08-24T18:15:58.089Z,68.54
2018-08-24T18:16:57.527Z,68.44
2018-08-24T18:17:57.220Z,67.33
2018-08-24T18:18:58.174Z,67.43
2018-08-24T18:19:57.169Z,68.24
2018-08-24T18:20:58.014Z,68.17
2018-08-24T18:21:57.137Z,68.57
2018-08-24T18:22:57.161Z,68.47
2018-08-24T18:24:02.019Z,68.67
2018-08-24T18:26:13.740Z,68.47
2018-08-24T18:28:19.841Z,69.78
2018-08-24T18:29:19.848Z,70.93
2018-08-24T18:30:19.715Z,70.79
2018-08-24T18:31:20.068Z,70.39
2018-08-24T18:32:20.658Z,71.00
2018-08-24T18:33:19.613Z,70.73
2018-08-24T18:34:20.334Z,70.32
2018-08-24T18:35:19.886Z,69.31
2018-08-24T18:36:19.561Z,70.32
2018-08-24T18:37:19.587Z,71.84
2018-08-24T18:38:20.341Z,71.94
2018-08-24T18:39:20.878Z,72.24
2018-08-24T18:40:19.529Z,72.14
2018-08-24T18:41:30.338Z,71.84
2018-08-24T18:43:35.661Z,72.04
2018-08-24T18:44:29.417Z,72.34
2018-08-24T18:45:29.259Z,72.24
2018-08-24T18:46:31.953Z,72.24
2018-08-24T18:47:30.214Z,71.84
2018-08-24T18:48:29.954Z,72.85
2018-08-24T18:49:30.951Z,71.84
2018-08-24T18:50:32.957Z,70.83
2018-08-24T18:51:30.208Z,71.53
2018-08-24T18:52:29.944Z,72.64
2018-08-24T18:53:29.946Z,70.62
2018-08-24T18:54:29.123Z,71.44
2018-08-24T18:55:29.144Z,71.73
2018-08-24T18:56:30.154Z,72.44
2018-08-24T18:58:47.715Z,72.75
2018-08-24T18:59:40.043Z,72.95
2018-08-24T19:00:39.834Z,74.06
2018-08-24T19:01:45.282Z,72.85
2018-08-24T19:02:39.934Z,72.24
2018-08-24T19:03:39.882Z,72.78
2018-08-24T19:04:39.898Z,72.75
2018-08-24T19:05:40.790Z,72.64
2018-08-24T19:06:39.775Z,72.75
2018-08-24T19:07:39.799Z,72.75
2018-08-24T19:08:39.861Z,73.46
2018-08-24T19:09:39.767Z,72.85
2018-08-24T19:10:40.584Z,72.75
2018-08-24T19:11:39.725Z,72.38
2018-08-24T19:13:56.418Z,70.93
2018-08-24T19:14:51.315Z,70.15
2018-08-24T19:15:51.313Z,70.66
2018-08-24T19:16:51.106Z,71.17
2018-08-24T19:17:51.089Z,70.86
2018-08-24T19:18:51.063Z,71.97
2018-08-24T19:19:51.266Z,71.97
2018-08-24T19:20:51.106Z,71.97
2018-08-24T19:21:51.009Z,71.67
2018-08-24T19:22:50.987Z,71.67
2018-08-24T19:23:52.085Z,71.37
2018-08-24T19:24:51.008Z,71.67
2018-08-24T19:25:51.061Z,71.47
2018-08-24T19:28:03.144Z,71.67
2018-08-24T19:29:02.624Z,71.06
2018-08-24T19:30:02.656Z,70.96
2018-08-24T19:31:02.704Z,71.67
2018-08-24T19:32:02.499Z,71.47
2018-08-24T19:33:02.464Z,71.26
2018-08-24T19:34:02.439Z,70.96
2018-08-24T19:35:02.452Z,71.57
2018-08-24T19:36:02.457Z,71.37
2018-08-24T19:37:02.386Z,71.97
2018-08-24T19:38:03.902Z,71.60
2018-08-24T19:39:02.363Z,71.30
2018-08-24T19:40:02.412Z,72.21
2018-08-24T19:41:02.349Z,71.60
2018-08-24T19:43:14.385Z,71.70
2018-08-24T19:44:14.270Z,72.51
2018-08-24T19:45:14.052Z,72.51
2018-08-24T19:46:14.102Z,72.51
2018-08-24T19:47:14.072Z,71.50
2018-08-24T19:48:14.029Z,72.24
2018-08-24T19:49:14.048Z,73.22
2018-08-24T19:50:14.111Z,72.85
2018-08-24T19:51:14.055Z,72.55
2018-08-24T19:52:19.333Z,72.24
2018-08-24T19:53:13.961Z,72.75
2018-08-24T19:54:14.429Z,73.15
2018-08-24T19:55:13.993Z,73.36
2018-08-24T19:56:13.933Z,72.24
2018-08-24T19:58:27.086Z,73.05
2018-08-24T19:59:25.609Z,72.75
2018-08-24T20:00:26.726Z,73.05
2018-08-24T20:01:25.692Z,73.29
2018-08-24T20:02:26.460Z,72.78
2018-08-24T20:03:25.434Z,72.99
2018-08-24T20:04:29.972Z,72.99
2018-08-24T20:05:25.436Z,73.29
2018-08-24T20:06:25.401Z,73.09
2018-08-24T20:07:25.369Z,73.80
2018-08-24T20:08:25.367Z,72.99
2018-08-24T20:09:25.419Z,72.65
2018-08-24T20:10:25.347Z,73.09
2018-08-24T20:11:25.318Z,73.80
2018-08-24T20:13:36.954Z,72.78
2018-08-24T20:14:36.902Z,73.09
2018-08-24T20:15:36.797Z,73.80
2018-08-24T20:16:36.904Z,73.49
2018-08-24T20:18:48.241Z,73.29
2018-08-24T20:19:48.120Z,72.78
2018-08-24T20:20:48.100Z,73.39
2018-08-24T20:21:48.172Z,72.78
2018-08-24T20:22:48.075Z,72.99
2018-08-24T20:23:48.009Z,73.49
2018-08-24T20:24:48.010Z,72.68
2018-08-24T20:25:48.030Z,72.17
2018-08-24T20:26:47.986Z,73.29
2018-08-24T20:29:01.737Z,73.49
2018-08-24T20:30:01.724Z,73.59
2018-08-24T20:31:01.735Z,72.88
2018-08-24T20:32:01.647Z,73.29
2018-08-24T20:33:01.678Z,73.59
2018-08-24T20:34:01.569Z,73.69
2018-08-24T20:35:01.520Z,73.80
2018-08-24T20:36:01.638Z,73.59
2018-08-24T20:37:01.499Z,72.88
2018-08-24T20:38:01.497Z,73.80
2018-08-24T20:39:01.506Z,73.39
2018-08-24T20:40:01.469Z,74.00
2018-08-24T20:41:01.462Z,73.29
2018-08-24T20:42:01.793Z,73.80
2018-08-24T20:44:12.822Z,75.11
2018-08-24T20:45:12.719Z,74.00
2018-08-24T20:46:12.658Z,73.29
2018-08-24T20:47:12.761Z,72.88
2018-08-24T20:48:12.603Z,72.78
2018-08-24T20:49:12.613Z,73.49
2018-08-24T20:50:12.639Z,74.10
2018-08-24T20:51:12.553Z,74.24
2018-08-24T20:52:12.584Z,73.69
2018-08-24T20:53:12.557Z,73.69
2018-08-24T20:54:12.524Z,73.93
2018-08-24T20:55:12.538Z,74.95
2018-08-24T20:56:12.502Z,74.33
2018-08-24T20:58:23.990Z,75.35
2018-08-24T20:59:23.917Z,74.54
2018-08-24T21:00:23.940Z,75.76
2018-08-24T21:01:23.793Z,75.65
2018-08-24T21:02:23.777Z,75.25
2018-08-24T21:03:23.778Z,75.15
2018-08-24T21:04:23.787Z,75.04
2018-08-24T21:05:23.739Z,75.15
2018-08-24T21:06:23.741Z,75.15
2018-08-24T21:07:23.716Z,75.55
2018-08-24T21:08:23.704Z,75.76
2018-08-24T21:09:23.721Z,75.15
2018-08-24T21:10:23.733Z,75.85
2018-08-24T21:11:23.706Z,75.25
2018-08-24T21:13:35.272Z,75.28
2018-08-24T21:14:35.245Z,76.90
2018-08-24T21:15:35.152Z,76.90
2018-08-24T21:16:35.219Z,76.09
2018-08-24T21:17:35.087Z,74.98
2018-08-24T21:18:35.065Z,75.55
2018-08-24T21:19:35.100Z,75.15
2018-08-24T21:20:35.036Z,75.38
2018-08-24T21:21:35.023Z,76.09
2018-08-24T21:22:35.029Z,75.99
2018-08-24T21:23:35.048Z,77.01
2018-08-24T21:24:35.031Z,74.77
2018-08-24T21:25:34.979Z,76.97
2018-08-24T21:26:34.960Z,75.04
2018-08-24T21:28:46.503Z,74.98
2018-08-24T21:29:46.453Z,75.45
2018-08-24T21:30:46.436Z,75.08
2018-08-24T21:31:46.484Z,75.79
2018-08-24T21:32:46.338Z,76.09
2018-08-24T21:33:46.342Z,75.99
2018-08-24T21:34:46.301Z,77.01
2018-08-24T21:35:46.276Z,75.59
2018-08-24T21:36:46.269Z,77.21
2018-08-24T21:37:46.278Z,76.09
2018-08-24T21:38:46.272Z,74.48
2018-08-24T21:39:46.278Z,75.18
2018-08-24T21:40:46.227Z,75.08
2018-08-24T21:41:46.211Z,74.37
2018-08-24T21:43:57.868Z,75.08
2018-08-24T21:44:57.870Z,75.08
2018-08-24T21:45:57.863Z,73.76
2018-08-24T21:46:57.853Z,73.97
2018-08-24T21:47:57.743Z,75.28
2018-08-24T21:48:57.703Z,74.88
2018-08-24T21:49:57.755Z,74.88
2018-08-24T21:50:57.711Z,75.18
2018-08-24T21:51:57.670Z,74.98
2018-08-24T21:52:57.675Z,75.32
2018-08-24T21:53:57.668Z,74.61
2018-08-24T21:54:57.636Z,74.51
2018-08-24T21:55:57.624Z,75.28
2018-08-24T21:56:57.643Z,75.32
2018-08-24T21:59:23.783Z,74.30
2018-08-24T22:00:33.199Z,74.10
2018-08-24T22:01:11.645Z,74.41
2018-08-24T22:02:23.094Z,75.01
